Sealevel, North Carolina
Current Conditions -  °F | °C
As of 5:56 PM on Friday 19 Dec 2014 (Local Time) from KNBT Reporting Station
Clear Clear  
Wind Chill: 45°   Ceiling: Unl
Heat Index: 47°   Visibility: NA
Dew Point: 33°   Wind: 5mph
Humidity: 59%   Direction: 10°N
Pressure: 30.17"   Gusts: NA
Location:  34.86°N, 76.39°W
Report Text: KNBT 192256Z AUTO 01004KT CLR 08/01 A3017 RMK AO2 SLP219 T00830006 PNO $
Loading
Personal Weather Stations






























Interactive Weather Map New forecast layout! Learn more

10-Day Weather Forecast

Advertisements
Track Severe Weather on mobile